sensor_id;sensor_type;location;lat;lon;timestamp;P1;durP1;ratioP1;P2;durP2;ratioP2
17199;SDS011;8716;52.268;20.968;2023-10-31T00:01:27;6.53;;;6.13;;
17199;SDS011;8716;52.268;20.968;2023-10-31T00:03:55;9.90;;;7.80;;
17199;SDS011;8716;52.268;20.968;2023-10-31T00:06:24;7.17;;;6.73;;
17199;SDS011;8716;52.268;20.968;2023-10-31T00:08:53;7.80;;;7.40;;
17199;SDS011;8716;52.268;20.968;2023-10-31T00:11:23;9.93;;;7.70;;
17199;SDS011;8716;52.268;20.968;2023-10-31T00:13:51;8.87;;;8.37;;
17199;SDS011;8716;52.268;20.968;2023-10-31T00:16:19;6.53;;;6.13;;
17199;SDS011;8716;52.268;20.968;2023-10-31T00:18:48;6.80;;;5.33;;
17199;SDS011;8716;52.268;20.968;2023-10-31T00:21:16;6.90;;;6.50;;
17199;SDS011;8716;52.268;20.968;2023-10-31T00:23:46;7.67;;;7.27;;
17199;SDS011;8716;52.268;20.968;2023-10-31T00:26:17;7.50;;;6.07;;
17199;SDS011;8716;52.268;20.968;2023-10-31T00:28:51;12.43;;;8.47;;
17199;SDS011;8716;52.268;20.968;2023-10-31T00:31:19;8.70;;;8.20;;
17199;SDS011;8716;52.268;20.968;2023-10-31T00:33:47;9.13;;;6.10;;
17199;SDS011;8716;52.268;20.968;2023-10-31T00:36:16;8.17;;;7.50;;
17199;SDS011;8716;52.268;20.968;2023-10-31T00:38:44;6.60;;;6.23;;
17199;SDS011;8716;52.268;20.968;2023-10-31T00:41:12;8.80;;;8.30;;
17199;SDS011;8716;52.268;20.968;2023-10-31T00:43:42;9.90;;;9.40;;
17199;SDS011;8716;52.268;20.968;2023-10-31T00:46:10;9.93;;;8.90;;
17199;SDS011;8716;52.268;20.968;2023-10-31T00:48:39;6.43;;;6.07;;
17199;SDS011;8716;52.268;20.968;2023-10-31T00:51:07;6.73;;;6.33;;
17199;SDS011;8716;52.268;20.968;2023-10-31T00:53:36;8.53;;;8.03;;
17199;SDS011;8716;52.268;20.968;2023-10-31T00:56:06;9.90;;;9.40;;
17199;SDS011;8716;52.268;20.968;2023-10-31T00:58:35;8.67;;;8.17;;
17199;SDS011;8716;52.268;20.968;2023-10-31T01:01:05;11.33;;;10.73;;
17199;SDS011;8716;52.268;20.968;2023-10-31T01:03:33;10.13;;;9.60;;
17199;SDS011;8716;52.268;20.968;2023-10-31T01:06:03;6.27;;;4.97;;
17199;SDS011;8716;52.268;20.968;2023-10-31T01:08:32;13.23;;;8.70;;
17199;SDS011;8716;52.268;20.968;2023-10-31T01:11:00;6.00;;;5.70;;
17199;SDS011;8716;52.268;20.968;2023-10-31T01:13:28;8.60;;;8.10;;
17199;SDS011;8716;52.268;20.968;2023-10-31T01:15:57;7.63;;;7.23;;
17199;SDS011;8716;52.268;20.968;2023-10-31T01:18:27;7.37;;;6.97;;
17199;SDS011;8716;52.268;20.968;2023-10-31T01:20:58;9.47;;;8.97;;
17199;SDS011;8716;52.268;20.968;2023-10-31T01:23:27;5.20;;;4.90;;
17199;SDS011;8716;52.268;20.968;2023-10-31T01:25:55;12.40;;;9.33;;
17199;SDS011;8716;52.268;20.968;2023-10-31T01:28:24;8.57;;;8.07;;
17199;SDS011;8716;52.268;20.968;2023-10-31T01:30:52;9.27;;;8.77;;
17199;SDS011;8716;52.268;20.968;2023-10-31T01:33:20;8.97;;;8.47;;
17199;SDS011;8716;52.268;20.968;2023-10-31T01:35:50;8.77;;;8.27;;
17199;SDS011;8716;52.268;20.968;2023-10-31T01:38:19;10.20;;;8.87;;
17199;SDS011;8716;52.268;20.968;2023-10-31T01:40:48;10.20;;;6.63;;
17199;SDS011;8716;52.268;20.968;2023-10-31T01:43:28;10.00;;;9.50;;
17199;SDS011;8716;52.268;20.968;2023-10-31T01:45:57;7.63;;;7.13;;
17199;SDS011;8716;52.268;20.968;2023-10-31T01:48:27;7.73;;;7.33;;
17199;SDS011;8716;52.268;20.968;2023-10-31T01:50:59;8.87;;;7.10;;
17199;SDS011;8716;52.268;20.968;2023-10-31T01:53:29;9.47;;;8.97;;
17199;SDS011;8716;52.268;20.968;2023-10-31T01:55:59;7.20;;;6.80;;
17199;SDS011;8716;52.268;20.968;2023-10-31T01:58:29;9.60;;;8.17;;
17199;SDS011;8716;52.268;20.968;2023-10-31T02:01:00;12.90;;;6.40;;
17199;SDS011;8716;52.268;20.968;2023-10-31T02:03:32;7.90;;;7.50;;
17199;SDS011;8716;52.268;20.968;2023-10-31T02:06:02;13.50;;;9.23;;
17199;SDS011;8716;52.268;20.968;2023-10-31T02:08:31;9.70;;;9.20;;
17199;SDS011;8716;52.268;20.968;2023-10-31T02:10:59;8.80;;;8.30;;
17199;SDS011;8716;52.268;20.968;2023-10-31T02:13:28;7.70;;;7.30;;
17199;SDS011;8716;52.268;20.968;2023-10-31T02:15:56;8.80;;;8.30;;
17199;SDS011;8716;52.268;20.968;2023-10-31T02:18:25;8.73;;;8.23;;
17199;SDS011;8716;52.268;20.968;2023-10-31T02:20:53;7.70;;;7.30;;
17199;SDS011;8716;52.268;20.968;2023-10-31T02:23:23;8.67;;;7.63;;
17199;SDS011;8716;52.268;20.968;2023-10-31T02:25:51;6.47;;;6.07;;
17199;SDS011;8716;52.268;20.968;2023-10-31T02:28:20;5.03;;;4.77;;
17199;SDS011;8716;52.268;20.968;2023-10-31T02:30:48;8.07;;;7.63;;
17199;SDS011;8716;52.268;20.968;2023-10-31T02:33:16;13.80;;;9.70;;
17199;SDS011;8716;52.268;20.968;2023-10-31T02:35:45;8.70;;;8.20;;
17199;SDS011;8716;52.268;20.968;2023-10-31T02:38:13;8.20;;;7.77;;
17199;SDS011;8716;52.268;20.968;2023-10-31T02:40:43;7.70;;;7.30;;
17199;SDS011;8716;52.268;20.968;2023-10-31T02:43:12;9.83;;;9.33;;
17199;SDS011;8716;52.268;20.968;2023-10-31T02:45:40;9.33;;;8.30;;
17199;SDS011;8716;52.268;20.968;2023-10-31T02:48:08;7.83;;;6.60;;
17199;SDS011;8716;52.268;20.968;2023-10-31T02:50:36;5.70;;;5.40;;
17199;SDS011;8716;52.268;20.968;2023-10-31T02:53:07;21.07;;;8.73;;
17199;SDS011;8716;52.268;20.968;2023-10-31T02:55:35;7.37;;;6.97;;
17199;SDS011;8716;52.268;20.968;2023-10-31T02:58:05;7.63;;;7.23;;
17199;SDS011;8716;52.268;20.968;2023-10-31T03:00:33;6.20;;;5.87;;
17199;SDS011;8716;52.268;20.968;2023-10-31T03:03:01;9.43;;;8.33;;
17199;SDS011;8716;52.268;20.968;2023-10-31T03:05:30;7.90;;;5.90;;
17199;SDS011;8716;52.268;20.968;2023-10-31T03:07:58;5.70;;;5.20;;
17199;SDS011;8716;52.268;20.968;2023-10-31T03:10:26;10.10;;;7.40;;
17199;SDS011;8716;52.268;20.968;2023-10-31T03:12:55;6.67;;;6.27;;
17199;SDS011;8716;52.268;20.968;2023-10-31T03:15:24;7.47;;;6.83;;
17199;SDS011;8716;52.268;20.968;2023-10-31T03:17:56;6.53;;;6.13;;
17199;SDS011;8716;52.268;20.968;2023-10-31T03:20:26;7.90;;;7.00;;
17199;SDS011;8716;52.268;20.968;2023-10-31T03:22:54;6.40;;;5.53;;
17199;SDS011;8716;52.268;20.968;2023-10-31T03:25:23;13.90;;;6.43;;
17199;SDS011;8716;52.268;20.968;2023-10-31T03:27:51;9.23;;;6.27;;
17199;SDS011;8716;52.268;20.968;2023-10-31T03:33:04;8.00;;;7.60;;
17199;SDS011;8716;52.268;20.968;2023-10-31T03:35:32;16.30;;;7.30;;
17199;SDS011;8716;52.268;20.968;2023-10-31T03:38:00;10.90;;;6.53;;
17199;SDS011;8716;52.268;20.968;2023-10-31T03:40:31;10.00;;;5.67;;
17199;SDS011;8716;52.268;20.968;2023-10-31T03:42:59;10.03;;;9.53;;
17199;SDS011;8716;52.268;20.968;2023-10-31T03:45:28;6.20;;;5.87;;
17199;SDS011;8716;52.268;20.968;2023-10-31T03:47:58;13.50;;;6.50;;
17199;SDS011;8716;52.268;20.968;2023-10-31T03:50:28;6.93;;;6.53;;
17199;SDS011;8716;52.268;20.968;2023-10-31T03:52:57;7.70;;;4.87;;
17199;SDS011;8716;52.268;20.968;2023-10-31T03:55:25;5.73;;;5.43;;
17199;SDS011;8716;52.268;20.968;2023-10-31T03:57:53;7.40;;;7.00;;
17199;SDS011;8716;52.268;20.968;2023-10-31T04:00:22;6.73;;;6.37;;
17199;SDS011;8716;52.268;20.968;2023-10-31T04:02:51;5.90;;;5.60;;
17199;SDS011;8716;52.268;20.968;2023-10-31T04:05:20;6.07;;;5.77;;
17199;SDS011;8716;52.268;20.968;2023-10-31T04:07:50;7.30;;;6.70;;
17199;SDS011;8716;52.268;20.968;2023-10-31T04:10:19;8.87;;;8.37;;
17199;SDS011;8716;52.268;20.968;2023-10-31T04:12:47;6.03;;;5.70;;
17199;SDS011;8716;52.268;20.968;2023-10-31T04:15:16;12.37;;;7.27;;
17199;SDS011;8716;52.268;20.968;2023-10-31T04:17:44;8.53;;;7.47;;
17199;SDS011;8716;52.268;20.968;2023-10-31T04:20:13;8.27;;;6.80;;
17199;SDS011;8716;52.268;20.968;2023-10-31T04:22:41;7.20;;;4.63;;
17199;SDS011;8716;52.268;20.968;2023-10-31T04:25:11;7.13;;;6.73;;
17199;SDS011;8716;52.268;20.968;2023-10-31T04:27:39;15.30;;;9.63;;
17199;SDS011;8716;52.268;20.968;2023-10-31T04:30:08;5.73;;;5.43;;
17199;SDS011;8716;52.268;20.968;2023-10-31T04:32:40;6.10;;;5.77;;
17199;SDS011;8716;52.268;20.968;2023-10-31T04:35:09;7.10;;;6.70;;
17199;SDS011;8716;52.268;20.968;2023-10-31T04:37:37;5.40;;;5.10;;
17199;SDS011;8716;52.268;20.968;2023-10-31T04:40:06;6.50;;;6.10;;
17199;SDS011;8716;52.268;20.968;2023-10-31T04:42:37;14.77;;;8.13;;
17199;SDS011;8716;52.268;20.968;2023-10-31T04:45:06;7.07;;;6.70;;
17199;SDS011;8716;52.268;20.968;2023-10-31T04:47:36;7.80;;;5.73;;
17199;SDS011;8716;52.268;20.968;2023-10-31T04:50:04;5.93;;;5.63;;
17199;SDS011;8716;52.268;20.968;2023-10-31T04:52:33;15.53;;;6.90;;
17199;SDS011;8716;52.268;20.968;2023-10-31T04:55:01;6.03;;;5.73;;
17199;SDS011;8716;52.268;20.968;2023-10-31T04:57:32;7.60;;;6.57;;
17199;SDS011;8716;52.268;20.968;2023-10-31T05:00:02;5.67;;;5.37;;
17199;SDS011;8716;52.268;20.968;2023-10-31T05:02:33;5.70;;;5.40;;
17199;SDS011;8716;52.268;20.968;2023-10-31T05:05:01;5.70;;;5.40;;
17199;SDS011;8716;52.268;20.968;2023-10-31T05:07:30;6.10;;;5.80;;
17199;SDS011;8716;52.268;20.968;2023-10-31T05:10:00;5.23;;;4.93;;
17199;SDS011;8716;52.268;20.968;2023-10-31T05:12:28;5.90;;;5.60;;
17199;SDS011;8716;52.268;20.968;2023-10-31T05:14:56;4.77;;;4.47;;
17199;SDS011;8716;52.268;20.968;2023-10-31T05:17:26;5.77;;;5.47;;
17199;SDS011;8716;52.268;20.968;2023-10-31T05:19:54;4.90;;;4.60;;
17199;SDS011;8716;52.268;20.968;2023-10-31T05:22:25;4.40;;;4.10;;
17199;SDS011;8716;52.268;20.968;2023-10-31T05:24:53;7.00;;;6.60;;
17199;SDS011;8716;52.268;20.968;2023-10-31T05:27:22;11.83;;;5.17;;
17199;SDS011;8716;52.268;20.968;2023-10-31T05:29:50;5.03;;;4.73;;
17199;SDS011;8716;52.268;20.968;2023-10-31T05:32:21;10.23;;;7.33;;
17199;SDS011;8716;52.268;20.968;2023-10-31T05:34:54;7.67;;;7.27;;
17199;SDS011;8716;52.268;20.968;2023-10-31T05:37:26;4.60;;;4.30;;
17199;SDS011;8716;52.268;20.968;2023-10-31T05:39:54;10.70;;;4.70;;
17199;SDS011;8716;52.268;20.968;2023-10-31T05:42:22;7.40;;;6.30;;
17199;SDS011;8716;52.268;20.968;2023-10-31T05:44:51;12.17;;;7.60;;
17199;SDS011;8716;52.268;20.968;2023-10-31T05:47:22;5.00;;;4.70;;
17199;SDS011;8716;52.268;20.968;2023-10-31T05:49:50;9.70;;;5.77;;
17199;SDS011;8716;52.268;20.968;2023-10-31T05:52:20;7.10;;;5.97;;
17199;SDS011;8716;52.268;20.968;2023-10-31T05:54:48;6.00;;;4.80;;
17199;SDS011;8716;52.268;20.968;2023-10-31T05:57:17;11.20;;;7.03;;
17199;SDS011;8716;52.268;20.968;2023-10-31T05:59:45;5.53;;;5.23;;
17199;SDS011;8716;52.268;20.968;2023-10-31T06:02:20;14.47;;;7.80;;
17199;SDS011;8716;52.268;20.968;2023-10-31T06:04:48;6.60;;;6.20;;
17199;SDS011;8716;52.268;20.968;2023-10-31T06:07:16;5.30;;;5.00;;
17199;SDS011;8716;52.268;20.968;2023-10-31T06:09:46;18.23;;;5.47;;
17199;SDS011;8716;52.268;20.968;2023-10-31T06:12:14;6.80;;;6.40;;
17199;SDS011;8716;52.268;20.968;2023-10-31T06:14:43;6.50;;;6.10;;
17199;SDS011;8716;52.268;20.968;2023-10-31T06:17:11;5.30;;;5.00;;
17199;SDS011;8716;52.268;20.968;2023-10-31T06:19:40;5.67;;;5.37;;
17199;SDS011;8716;52.268;20.968;2023-10-31T06:22:12;6.50;;;6.10;;
17199;SDS011;8716;52.268;20.968;2023-10-31T06:24:40;6.37;;;6.00;;
17199;SDS011;8716;52.268;20.968;2023-10-31T06:27:10;11.37;;;5.73;;
17199;SDS011;8716;52.268;20.968;2023-10-31T06:29:38;13.63;;;6.17;;
17199;SDS011;8716;52.268;20.968;2023-10-31T06:32:26;7.27;;;6.30;;
17199;SDS011;8716;52.268;20.968;2023-10-31T06:34:55;6.50;;;6.13;;
17199;SDS011;8716;52.268;20.968;2023-10-31T06:37:23;6.00;;;5.73;;
17199;SDS011;8716;52.268;20.968;2023-10-31T06:39:52;9.77;;;5.37;;
17199;SDS011;8716;52.268;20.968;2023-10-31T06:42:23;9.03;;;7.20;;
17199;SDS011;8716;52.268;20.968;2023-10-31T06:44:51;7.00;;;6.10;;
17199;SDS011;8716;52.268;20.968;2023-10-31T06:47:20;6.03;;;5.73;;
17199;SDS011;8716;52.268;20.968;2023-10-31T06:49:48;6.33;;;5.00;;
17199;SDS011;8716;52.268;20.968;2023-10-31T06:52:16;5.90;;;5.60;;
17199;SDS011;8716;52.268;20.968;2023-10-31T06:54:45;6.43;;;6.00;;
17199;SDS011;8716;52.268;20.968;2023-10-31T06:57:13;5.80;;;5.50;;
17199;SDS011;8716;52.268;20.968;2023-10-31T06:59:44;7.00;;;4.70;;
17199;SDS011;8716;52.268;20.968;2023-10-31T07:02:12;4.97;;;4.70;;
17199;SDS011;8716;52.268;20.968;2023-10-31T07:04:41;6.57;;;6.17;;
17199;SDS011;8716;52.268;20.968;2023-10-31T07:07:10;7.90;;;4.60;;
17199;SDS011;8716;52.268;20.968;2023-10-31T07:09:40;8.87;;;6.60;;
17199;SDS011;8716;52.268;20.968;2023-10-31T07:12:09;8.13;;;5.20;;
17199;SDS011;8716;52.268;20.968;2023-10-31T07:14:37;7.63;;;7.23;;
17199;SDS011;8716;52.268;20.968;2023-10-31T07:17:07;4.60;;;4.30;;
17199;SDS011;8716;52.268;20.968;2023-10-31T07:19:35;6.53;;;5.97;;
17199;SDS011;8716;52.268;20.968;2023-10-31T07:22:03;5.37;;;5.07;;
17199;SDS011;8716;52.268;20.968;2023-10-31T07:24:32;5.43;;;5.13;;
17199;SDS011;8716;52.268;20.968;2023-10-31T07:27:03;6.23;;;5.90;;
17199;SDS011;8716;52.268;20.968;2023-10-31T07:29:31;6.67;;;6.27;;
17199;SDS011;8716;52.268;20.968;2023-10-31T07:31:59;5.50;;;5.20;;
17199;SDS011;8716;52.268;20.968;2023-10-31T07:34:30;6.17;;;5.87;;
17199;SDS011;8716;52.268;20.968;2023-10-31T07:37:00;3.90;;;3.70;;
17199;SDS011;8716;52.268;20.968;2023-10-31T07:39:29;7.50;;;7.10;;
17199;SDS011;8716;52.268;20.968;2023-10-31T07:41:57;4.77;;;4.50;;
17199;SDS011;8716;52.268;20.968;2023-10-31T07:44:25;6.20;;;5.87;;
17199;SDS011;8716;52.268;20.968;2023-10-31T07:46:54;6.87;;;6.50;;
17199;SDS011;8716;52.268;20.968;2023-10-31T07:49:22;34.97;;;8.00;;
17199;SDS011;8716;52.268;20.968;2023-10-31T07:51:52;6.67;;;6.27;;
17199;SDS011;8716;52.268;20.968;2023-10-31T07:54:21;7.77;;;6.20;;
17199;SDS011;8716;52.268;20.968;2023-10-31T07:56:49;5.13;;;4.83;;
17199;SDS011;8716;52.268;20.968;2023-10-31T07:59:18;6.07;;;5.80;;
17199;SDS011;8716;52.268;20.968;2023-10-31T08:01:46;5.33;;;5.03;;
17199;SDS011;8716;52.268;20.968;2023-10-31T08:04:18;6.13;;;5.80;;
17199;SDS011;8716;52.268;20.968;2023-10-31T08:06:46;5.57;;;5.27;;
17199;SDS011;8716;52.268;20.968;2023-10-31T08:09:16;4.77;;;4.47;;
17199;SDS011;8716;52.268;20.968;2023-10-31T08:11:44;5.30;;;5.00;;
17199;SDS011;8716;52.268;20.968;2023-10-31T08:14:16;5.63;;;5.33;;
17199;SDS011;8716;52.268;20.968;2023-10-31T08:16:44;6.63;;;6.10;;
17199;SDS011;8716;52.268;20.968;2023-10-31T08:19:12;6.60;;;5.37;;
17199;SDS011;8716;52.268;20.968;2023-10-31T08:21:43;6.50;;;6.13;;
17199;SDS011;8716;52.268;20.968;2023-10-31T08:24:14;4.27;;;4.00;;
17199;SDS011;8716;52.268;20.968;2023-10-31T08:26:45;5.30;;;5.00;;
17199;SDS011;8716;52.268;20.968;2023-10-31T08:29:17;5.00;;;4.70;;
17199;SDS011;8716;52.268;20.968;2023-10-31T08:31:45;5.60;;;5.30;;
17199;SDS011;8716;52.268;20.968;2023-10-31T08:34:13;9.73;;;6.90;;
17199;SDS011;8716;52.268;20.968;2023-10-31T08:36:45;5.60;;;5.30;;
17199;SDS011;8716;52.268;20.968;2023-10-31T08:39:13;4.17;;;3.93;;
17199;SDS011;8716;52.268;20.968;2023-10-31T08:41:50;6.33;;;5.97;;
17199;SDS011;8716;52.268;20.968;2023-10-31T08:44:19;5.30;;;5.00;;
17199;SDS011;8716;52.268;20.968;2023-10-31T08:46:47;4.50;;;4.20;;
17199;SDS011;8716;52.268;20.968;2023-10-31T08:49:16;6.10;;;4.40;;
17199;SDS011;8716;52.268;20.968;2023-10-31T08:51:45;5.20;;;4.90;;
17199;SDS011;8716;52.268;20.968;2023-10-31T08:54:13;6.43;;;5.97;;
17199;SDS011;8716;52.268;20.968;2023-10-31T08:56:42;5.70;;;5.13;;
17199;SDS011;8716;52.268;20.968;2023-10-31T08:59:13;6.93;;;6.53;;
17199;SDS011;8716;52.268;20.968;2023-10-31T09:01:42;5.73;;;5.43;;
17199;SDS011;8716;52.268;20.968;2023-10-31T09:04:10;11.40;;;6.60;;
17199;SDS011;8716;52.268;20.968;2023-10-31T09:06:39;4.93;;;4.63;;
17199;SDS011;8716;52.268;20.968;2023-10-31T09:09:07;5.20;;;4.90;;
17199;SDS011;8716;52.268;20.968;2023-10-31T09:11:36;6.13;;;5.80;;
17199;SDS011;8716;52.268;20.968;2023-10-31T09:14:05;4.30;;;4.00;;
17199;SDS011;8716;52.268;20.968;2023-10-31T09:16:37;4.57;;;4.27;;
17199;SDS011;8716;52.268;20.968;2023-10-31T09:19:05;10.80;;;6.20;;
17199;SDS011;8716;52.268;20.968;2023-10-31T09:21:34;6.87;;;6.40;;
17199;SDS011;8716;52.268;20.968;2023-10-31T09:24:07;7.00;;;4.77;;
17199;SDS011;8716;52.268;20.968;2023-10-31T09:26:36;6.90;;;6.50;;
17199;SDS011;8716;52.268;20.968;2023-10-31T09:29:05;5.93;;;5.63;;
17199;SDS011;8716;52.268;20.968;2023-10-31T09:31:42;4.63;;;4.33;;
17199;SDS011;8716;52.268;20.968;2023-10-31T09:34:11;5.07;;;4.77;;
17199;SDS011;8716;52.268;20.968;2023-10-31T09:36:40;4.40;;;4.13;;
17199;SDS011;8716;52.268;20.968;2023-10-31T09:39:12;5.63;;;5.33;;
17199;SDS011;8716;52.268;20.968;2023-10-31T09:41:40;5.17;;;4.87;;
17199;SDS011;8716;52.268;20.968;2023-10-31T09:44:11;5.73;;;5.43;;
17199;SDS011;8716;52.268;20.968;2023-10-31T09:46:40;7.13;;;5.87;;
17199;SDS011;8716;52.268;20.968;2023-10-31T09:49:09;6.50;;;6.10;;
17199;SDS011;8716;52.268;20.968;2023-10-31T09:51:38;5.27;;;4.40;;
17199;SDS011;8716;52.268;20.968;2023-10-31T09:54:07;5.87;;;5.57;;
17199;SDS011;8716;52.268;20.968;2023-10-31T09:56:36;4.70;;;4.40;;
17199;SDS011;8716;52.268;20.968;2023-10-31T09:59:05;4.50;;;4.20;;
17199;SDS011;8716;52.268;20.968;2023-10-31T10:01:33;6.23;;;5.50;;
17199;SDS011;8716;52.268;20.968;2023-10-31T10:04:04;5.27;;;4.97;;
17199;SDS011;8716;52.268;20.968;2023-10-31T10:06:34;6.40;;;6.03;;
17199;SDS011;8716;52.268;20.968;2023-10-31T10:09:03;9.70;;;5.07;;
17199;SDS011;8716;52.268;20.968;2023-10-31T10:11:33;6.53;;;6.13;;
17199;SDS011;8716;52.268;20.968;2023-10-31T10:14:02;7.47;;;6.53;;
17199;SDS011;8716;52.268;20.968;2023-10-31T10:16:36;6.73;;;6.13;;
17199;SDS011;8716;52.268;20.968;2023-10-31T10:19:17;6.77;;;4.70;;
17199;SDS011;8716;52.268;20.968;2023-10-31T10:21:51;5.80;;;5.50;;
17199;SDS011;8716;52.268;20.968;2023-10-31T10:24:21;4.93;;;4.63;;
17199;SDS011;8716;52.268;20.968;2023-10-31T10:26:50;4.73;;;4.43;;
17199;SDS011;8716;52.268;20.968;2023-10-31T10:29:19;5.97;;;5.67;;
17199;SDS011;8716;52.268;20.968;2023-10-31T10:31:48;6.37;;;6.00;;
17199;SDS011;8716;52.268;20.968;2023-10-31T10:34:16;8.73;;;8.27;;
17199;SDS011;8716;52.268;20.968;2023-10-31T10:36:46;4.43;;;4.13;;
17199;SDS011;8716;52.268;20.968;2023-10-31T10:39:19;5.40;;;4.57;;
17199;SDS011;8716;52.268;20.968;2023-10-31T10:41:52;5.33;;;5.03;;
17199;SDS011;8716;52.268;20.968;2023-10-31T10:44:23;5.47;;;5.17;;
17199;SDS011;8716;52.268;20.968;2023-10-31T10:47:02;5.50;;;5.20;;
17199;SDS011;8716;52.268;20.968;2023-10-31T10:49:33;6.13;;;5.83;;
17199;SDS011;8716;52.268;20.968;2023-10-31T10:52:16;5.80;;;5.50;;
17199;SDS011;8716;52.268;20.968;2023-10-31T10:54:51;3.90;;;3.70;;
17199;SDS011;8716;52.268;20.968;2023-10-31T10:57:27;6.00;;;5.70;;
17199;SDS011;8716;52.268;20.968;2023-10-31T11:00:03;7.13;;;6.73;;
17199;SDS011;8716;52.268;20.968;2023-10-31T11:02:39;6.90;;;6.50;;
17199;SDS011;8716;52.268;20.968;2023-10-31T11:05:09;4.67;;;4.37;;
17199;SDS011;8716;52.268;20.968;2023-10-31T11:07:38;5.10;;;4.80;;
17199;SDS011;8716;52.268;20.968;2023-10-31T11:10:09;4.93;;;4.63;;
17199;SDS011;8716;52.268;20.968;2023-10-31T11:12:37;5.60;;;5.30;;
17199;SDS011;8716;52.268;20.968;2023-10-31T11:15:06;6.10;;;5.80;;
17199;SDS011;8716;52.268;20.968;2023-10-31T11:17:38;5.67;;;5.37;;
17199;SDS011;8716;52.268;20.968;2023-10-31T11:20:09;5.20;;;4.90;;
17199;SDS011;8716;52.268;20.968;2023-10-31T11:22:41;5.43;;;5.13;;
17199;SDS011;8716;52.268;20.968;2023-10-31T11:25:17;3.80;;;3.60;;
17199;SDS011;8716;52.268;20.968;2023-10-31T11:28:12;4.83;;;4.53;;
17199;SDS011;8716;52.268;20.968;2023-10-31T11:30:44;4.43;;;4.13;;
17199;SDS011;8716;52.268;20.968;2023-10-31T11:33:23;6.80;;;6.40;;
17199;SDS011;8716;52.268;20.968;2023-10-31T11:35:59;7.10;;;5.37;;
17199;SDS011;8716;52.268;20.968;2023-10-31T11:38:31;3.70;;;3.50;;
17199;SDS011;8716;52.268;20.968;2023-10-31T11:41:04;4.27;;;4.00;;
17199;SDS011;8716;52.268;20.968;2023-10-31T11:43:53;5.53;;;5.23;;
17199;SDS011;8716;52.268;20.968;2023-10-31T11:46:23;5.73;;;5.43;;
17199;SDS011;8716;52.268;20.968;2023-10-31T11:48:53;5.07;;;4.77;;
17199;SDS011;8716;52.268;20.968;2023-10-31T11:51:23;6.20;;;4.13;;
17199;SDS011;8716;52.268;20.968;2023-10-31T11:53:52;6.53;;;6.13;;
17199;SDS011;8716;52.268;20.968;2023-10-31T11:56:22;4.40;;;4.10;;
17199;SDS011;8716;52.268;20.968;2023-10-31T11:58:57;4.53;;;4.23;;
17199;SDS011;8716;52.268;20.968;2023-10-31T12:01:31;5.87;;;5.57;;
17199;SDS011;8716;52.268;20.968;2023-10-31T12:04:01;6.00;;;5.70;;
17199;SDS011;8716;52.268;20.968;2023-10-31T12:06:34;5.47;;;5.17;;
17199;SDS011;8716;52.268;20.968;2023-10-31T12:09:04;5.03;;;4.73;;
17199;SDS011;8716;52.268;20.968;2023-10-31T12:11:37;5.57;;;5.30;;
17199;SDS011;8716;52.268;20.968;2023-10-31T12:14:17;4.50;;;4.20;;
17199;SDS011;8716;52.268;20.968;2023-10-31T12:16:46;4.67;;;4.37;;
17199;SDS011;8716;52.268;20.968;2023-10-31T12:19:14;4.00;;;3.80;;
17199;SDS011;8716;52.268;20.968;2023-10-31T12:21:43;3.77;;;3.57;;
17199;SDS011;8716;52.268;20.968;2023-10-31T12:24:14;4.03;;;3.83;;
17199;SDS011;8716;52.268;20.968;2023-10-31T12:26:45;6.13;;;4.30;;
17199;SDS011;8716;52.268;20.968;2023-10-31T12:29:14;3.60;;;3.40;;
17199;SDS011;8716;52.268;20.968;2023-10-31T12:31:44;4.67;;;4.37;;
17199;SDS011;8716;52.268;20.968;2023-10-31T12:34:13;4.13;;;3.90;;
17199;SDS011;8716;52.268;20.968;2023-10-31T12:36:43;3.30;;;3.10;;
17199;SDS011;8716;52.268;20.968;2023-10-31T12:39:13;4.20;;;3.87;;
17199;SDS011;8716;52.268;20.968;2023-10-31T12:41:46;3.73;;;3.53;;
17199;SDS011;8716;52.268;20.968;2023-10-31T12:44:16;4.50;;;4.20;;
17199;SDS011;8716;52.268;20.968;2023-10-31T12:46:53;5.13;;;4.83;;
17199;SDS011;8716;52.268;20.968;2023-10-31T12:49:21;4.57;;;4.27;;
17199;SDS011;8716;52.268;20.968;2023-10-31T12:51:57;6.60;;;4.00;;
17199;SDS011;8716;52.268;20.968;2023-10-31T12:54:27;6.40;;;3.80;;
17199;SDS011;8716;52.268;20.968;2023-10-31T12:57:02;5.80;;;5.50;;
17199;SDS011;8716;52.268;20.968;2023-10-31T12:59:32;4.03;;;3.83;;
17199;SDS011;8716;52.268;20.968;2023-10-31T13:02:01;3.70;;;3.50;;
17199;SDS011;8716;52.268;20.968;2023-10-31T13:04:30;3.50;;;3.30;;
17199;SDS011;8716;52.268;20.968;2023-10-31T13:07:01;5.50;;;4.10;;
17199;SDS011;8716;52.268;20.968;2023-10-31T13:09:30;3.83;;;3.63;;
17199;SDS011;8716;52.268;20.968;2023-10-31T13:12:04;4.03;;;3.73;;
17199;SDS011;8716;52.268;20.968;2023-10-31T13:14:34;3.80;;;3.60;;
17199;SDS011;8716;52.268;20.968;2023-10-31T13:17:03;4.00;;;3.80;;
17199;SDS011;8716;52.268;20.968;2023-10-31T13:19:32;4.40;;;4.10;;
17199;SDS011;8716;52.268;20.968;2023-10-31T13:22:00;3.87;;;3.67;;
17199;SDS011;8716;52.268;20.968;2023-10-31T13:24:28;4.40;;;4.10;;
17199;SDS011;8716;52.268;20.968;2023-10-31T13:26:57;3.17;;;2.97;;
17199;SDS011;8716;52.268;20.968;2023-10-31T13:29:28;4.17;;;3.93;;
17199;SDS011;8716;52.268;20.968;2023-10-31T13:31:57;3.47;;;3.27;;
17199;SDS011;8716;52.268;20.968;2023-10-31T13:34:25;3.87;;;3.67;;
17199;SDS011;8716;52.268;20.968;2023-10-31T13:36:54;11.30;;;4.37;;
17199;SDS011;8716;52.268;20.968;2023-10-31T13:39:22;3.93;;;3.73;;
17199;SDS011;8716;52.268;20.968;2023-10-31T13:41:51;3.33;;;3.13;;
17199;SDS011;8716;52.268;20.968;2023-10-31T13:44:19;4.93;;;4.20;;
17199;SDS011;8716;52.268;20.968;2023-10-31T13:46:49;3.63;;;3.50;;
17199;SDS011;8716;52.268;20.968;2023-10-31T13:49:17;3.67;;;3.47;;
17199;SDS011;8716;52.268;20.968;2023-10-31T13:51:46;3.87;;;3.67;;
17199;SDS011;8716;52.268;20.968;2023-10-31T13:54:15;2.67;;;2.47;;
17199;SDS011;8716;52.268;20.968;2023-10-31T13:56:43;2.97;;;2.77;;
17199;SDS011;8716;52.268;20.968;2023-10-31T13:59:12;3.00;;;2.80;;
17199;SDS011;8716;52.268;20.968;2023-10-31T14:01:41;3.27;;;3.10;;
17199;SDS011;8716;52.268;20.968;2023-10-31T14:04:11;4.63;;;3.40;;
17199;SDS011;8716;52.268;20.968;2023-10-31T14:06:41;5.90;;;3.40;;
17199;SDS011;8716;52.268;20.968;2023-10-31T14:09:10;4.17;;;3.93;;
17199;SDS011;8716;52.268;20.968;2023-10-31T14:11:39;4.70;;;4.40;;
17199;SDS011;8716;52.268;20.968;2023-10-31T14:14:08;5.30;;;4.00;;
17199;SDS011;8716;52.268;20.968;2023-10-31T14:16:39;3.20;;;3.00;;
17199;SDS011;8716;52.268;20.968;2023-10-31T14:19:12;3.07;;;2.87;;
17199;SDS011;8716;52.268;20.968;2023-10-31T14:21:40;4.10;;;3.50;;
17199;SDS011;8716;52.268;20.968;2023-10-31T14:24:10;3.17;;;2.97;;
17199;SDS011;8716;52.268;20.968;2023-10-31T14:26:39;2.77;;;2.57;;
17199;SDS011;8716;52.268;20.968;2023-10-31T14:29:10;2.93;;;2.73;;
17199;SDS011;8716;52.268;20.968;2023-10-31T14:31:39;2.80;;;2.60;;
17199;SDS011;8716;52.268;20.968;2023-10-31T14:34:09;5.23;;;4.93;;
17199;SDS011;8716;52.268;20.968;2023-10-31T14:36:39;3.10;;;2.90;;
17199;SDS011;8716;52.268;20.968;2023-10-31T14:39:08;3.17;;;2.97;;
17199;SDS011;8716;52.268;20.968;2023-10-31T14:41:44;4.80;;;4.50;;
17199;SDS011;8716;52.268;20.968;2023-10-31T14:44:13;3.30;;;3.10;;
17199;SDS011;8716;52.268;20.968;2023-10-31T14:46:41;2.80;;;2.60;;
17199;SDS011;8716;52.268;20.968;2023-10-31T14:49:09;3.50;;;3.30;;
17199;SDS011;8716;52.268;20.968;2023-10-31T14:51:39;3.77;;;3.57;;
17199;SDS011;8716;52.268;20.968;2023-10-31T14:54:08;3.20;;;3.00;;
17199;SDS011;8716;52.268;20.968;2023-10-31T14:56:37;3.30;;;3.10;;
17199;SDS011;8716;52.268;20.968;2023-10-31T14:59:06;3.40;;;3.20;;
17199;SDS011;8716;52.268;20.968;2023-10-31T15:01:35;3.20;;;3.00;;
17199;SDS011;8716;52.268;20.968;2023-10-31T15:04:04;3.60;;;3.40;;